createdAt,value
2017-06-21T00:00:24.574Z,24.58
2017-06-21T00:02:12.106Z,24.68
2017-06-21T00:02:52.591Z,24.84
2017-06-21T00:03:33.122Z,24.81
2017-06-21T00:04:13.618Z,24.78
2017-06-21T00:04:54.107Z,24.95
2017-06-21T00:05:34.581Z,24.88
2017-06-21T00:06:15.078Z,25.05
2017-06-21T00:06:55.623Z,25.15
2017-06-21T00:07:36.107Z,25.09
2017-06-21T00:08:16.602Z,25.05
2017-06-21T00:08:57.094Z,25
2017-06-21T00:09:37.571Z,25
2017-06-21T00:10:18.054Z,25.06
2017-06-21T00:10:58.556Z,24.98
2017-06-21T00:11:39.056Z,25.08
2017-06-21T00:12:19.528Z,25.05
2017-06-21T00:13:00.017Z,24.96
2017-06-21T00:13:40.513Z,25.03
2017-06-21T00:14:20.994Z,24.95
2017-06-21T00:15:01.502Z,24.98
2017-06-21T00:15:42.006Z,24.91
2017-06-21T00:16:22.504Z,24.93
2017-06-21T00:17:02.988Z,24.95
2017-06-21T00:17:43.482Z,24.93
2017-06-21T00:18:23.986Z,24.93
2017-06-21T00:19:04.489Z,24.91
2017-06-21T00:19:44.983Z,24.98
2017-06-21T00:20:25.485Z,25.05
2017-06-21T00:21:05.942Z,25.09
2017-06-21T00:21:46.441Z,25.1
2017-06-21T00:22:26.944Z,25.08
2017-06-21T00:23:07.432Z,25.13
2017-06-21T00:23:47.921Z,25.06
2017-06-21T00:24:28.422Z,25.06
2017-06-21T00:25:08.917Z,25.08
2017-06-21T00:25:49.433Z,25.1
2017-06-21T00:26:29.917Z,24.96
2017-06-21T00:27:10.433Z,24.96
2017-06-21T00:27:50.918Z,24.91
2017-06-21T00:28:31.419Z,24.91
2017-06-21T00:29:11.907Z,24.93
2017-06-21T00:29:52.447Z,24.87
2017-06-21T00:30:32.890Z,24.95
2017-06-21T00:31:13.388Z,24.98
2017-06-21T00:31:53.877Z,24.96
2017-06-21T00:32:34.419Z,24.95
2017-06-21T00:33:14.860Z,24.98
2017-06-21T00:33:55.357Z,24.88
2017-06-21T00:34:35.844Z,24.61
2017-06-21T00:35:16.334Z,24.46
2017-06-21T00:35:56.822Z,24.32
2017-06-21T00:36:37.334Z,24.21
2017-06-21T00:37:17.819Z,24
2017-06-21T00:37:58.335Z,24.09
2017-06-21T00:38:38.814Z,23.97
2017-06-21T00:39:19.281Z,23.83
2017-06-21T00:41:16.972Z,23.88
2017-06-21T00:41:57.387Z,23.88
2017-06-21T00:42:37.877Z,23.84
2017-06-21T00:43:18.386Z,23.98
2017-06-21T00:43:58.878Z,23.79
2017-06-21T00:44:39.368Z,23.73
2017-06-21T00:45:19.861Z,23.61
2017-06-21T00:46:00.348Z,23.69
2017-06-21T00:46:40.887Z,23.69
2017-06-21T00:47:21.352Z,23.66
2017-06-21T00:48:01.859Z,23.68
2017-06-21T00:48:42.338Z,23.54
2017-06-21T00:49:22.825Z,23.47
2017-06-21T00:50:03.312Z,23.55
2017-06-21T00:50:43.815Z,23.57
2017-06-21T00:51:24.309Z,23.4
2017-06-21T00:52:04.759Z,23.38
2017-06-21T00:52:45.253Z,23.43
2017-06-21T00:53:25.733Z,23.47
2017-06-21T00:54:06.219Z,23.54
2017-06-21T00:54:46.700Z,23.53
2017-06-21T00:55:27.181Z,23.39
2017-06-21T00:56:07.687Z,23.43
2017-06-21T00:56:48.170Z,23.58
2017-06-21T00:57:28.661Z,23.66
2017-06-21T00:58:09.174Z,23.68
2017-06-21T00:58:49.652Z,23.72
2017-06-21T00:59:30.137Z,23.83
2017-06-21T01:00:10.637Z,23.84
2017-06-21T01:00:51.105Z,23.98
2017-06-21T01:01:31.589Z,23.83
2017-06-21T01:02:12.081Z,23.84
2017-06-21T01:02:52.568Z,23.85
2017-06-21T01:03:33.072Z,23.87
2017-06-21T01:04:13.544Z,23.9
2017-06-21T01:04:54.037Z,23.83
2017-06-21T01:05:34.533Z,23.95
2017-06-21T01:06:15.019Z,23.85
2017-06-21T01:06:55.525Z,23.78
2017-06-21T01:07:36.047Z,23.78
2017-06-21T01:08:16.483Z,23.65
2017-06-21T01:08:56.987Z,23.73
2017-06-21T01:09:37.482Z,23.7
2017-06-21T01:10:18.021Z,23.68
2017-06-21T01:10:58.474Z,23.6
2017-06-21T01:11:38.966Z,23.6
2017-06-21T01:12:19.452Z,23.61
2017-06-21T01:12:59.979Z,23.68
2017-06-21T01:13:40.474Z,23.61
2017-06-21T01:14:20.972Z,23.66
2017-06-21T01:15:01.456Z,23.6
2017-06-21T01:15:41.951Z,23.65
2017-06-21T01:16:22.450Z,23.7
2017-06-21T01:17:02.937Z,23.5
2017-06-21T01:17:43.451Z,23.51
2017-06-21T01:18:23.940Z,23.47
2017-06-21T01:19:04.449Z,23.47
2017-06-21T01:19:44.959Z,23.46
2017-06-21T01:20:25.466Z,23.32
2017-06-21T01:21:05.928Z,23.23
2017-06-21T01:21:46.459Z,23.17
2017-06-21T01:22:26.914Z,23.09
2017-06-21T01:23:07.399Z,23.17
2017-06-21T01:23:47.881Z,23.17
2017-06-21T01:24:28.386Z,23.22
2017-06-21T01:25:08.885Z,23.04
2017-06-21T01:25:49.421Z,22.95
2017-06-21T01:26:29.872Z,22.88
2017-06-21T01:27:10.369Z,22.85
2017-06-21T01:27:50.885Z,22.9
2017-06-21T01:28:31.383Z,22.9
2017-06-21T01:29:11.881Z,22.88
2017-06-21T01:29:52.387Z,22.86
2017-06-21T01:30:32.876Z,22.88
2017-06-21T01:31:13.375Z,22.85
2017-06-21T01:31:53.874Z,22.88
2017-06-21T01:32:34.372Z,22.86
2017-06-21T01:33:14.843Z,22.76
2017-06-21T01:33:55.349Z,22.75
2017-06-21T01:34:35.889Z,22.61
2017-06-21T01:35:16.337Z,22.65
2017-06-21T01:35:56.828Z,22.61
2017-06-21T01:36:37.333Z,22.64
2017-06-21T01:37:17.807Z,22.55
2017-06-21T01:37:58.302Z,22.6
2017-06-21T01:38:38.798Z,22.6
2017-06-21T01:39:19.293Z,22.61
2017-06-21T01:39:59.804Z,22.57
2017-06-21T01:40:40.331Z,22.64
2017-06-21T01:41:20.769Z,22.64
2017-06-21T01:42:01.261Z,22.58
2017-06-21T01:42:41.752Z,22.72
2017-06-21T01:43:22.244Z,22.75
2017-06-21T01:44:02.728Z,22.75
2017-06-21T01:44:43.230Z,22.57
2017-06-21T01:45:23.716Z,22.6
2017-06-21T01:46:04.215Z,22.43
2017-06-21T01:46:44.685Z,22.45
2017-06-21T01:47:25.180Z,22.39
2017-06-21T01:48:05.698Z,22.39
2017-06-21T01:48:46.183Z,22.35
2017-06-21T01:49:26.671Z,22.27
2017-06-21T01:50:07.163Z,22.24
2017-06-21T01:50:47.650Z,22.37
2017-06-21T01:51:28.144Z,22.28
2017-06-21T01:52:08.651Z,22.46
2017-06-21T01:52:49.153Z,22.52
2017-06-21T01:53:29.653Z,22.54
2017-06-21T01:54:10.170Z,22.55
2017-06-21T01:54:50.660Z,22.57
2017-06-21T01:55:31.194Z,22.61
2017-06-21T01:56:11.665Z,22.65
2017-06-21T01:56:52.191Z,22.58
2017-06-21T01:57:32.661Z,22.54
2017-06-21T01:58:13.146Z,22.55
2017-06-21T01:58:53.634Z,22.45
2017-06-21T01:59:34.132Z,22.37
2017-06-21T02:00:14.623Z,22.37
2017-06-21T02:00:55.112Z,22.28
2017-06-21T02:01:35.630Z,22.18
2017-06-21T02:02:16.139Z,22.12
2017-06-21T02:02:56.620Z,22.02
2017-06-21T02:03:37.109Z,22.12
2017-06-21T02:04:17.602Z,22.06
2017-06-21T02:04:58.107Z,22.1
2017-06-21T02:05:38.592Z,22.15
2017-06-21T02:06:19.091Z,22.1
2017-06-21T02:06:59.569Z,22.09
2017-06-21T02:07:40.069Z,22
2017-06-21T02:08:20.534Z,21.99
2017-06-21T02:09:01.022Z,22
2017-06-21T02:09:41.516Z,21.9
2017-06-21T02:10:21.992Z,21.96
2017-06-21T02:11:02.479Z,21.96
2017-06-21T02:11:42.954Z,21.94
2017-06-21T02:12:23.461Z,21.88
2017-06-21T02:13:03.937Z,21.84
2017-06-21T02:13:44.428Z,21.77
2017-06-21T02:14:24.925Z,21.68
2017-06-21T02:15:05.410Z,21.71
2017-06-21T02:15:45.909Z,21.65
2017-06-21T02:16:26.398Z,21.52
2017-06-21T02:17:06.894Z,21.54
2017-06-21T02:17:47.384Z,21.53
2017-06-21T02:18:27.885Z,21.52
2017-06-21T02:19:08.368Z,21.56
2017-06-21T02:19:48.841Z,21.68
2017-06-21T02:20:29.320Z,21.61
2017-06-21T02:21:09.817Z,21.64
2017-06-21T02:21:50.304Z,21.54
2017-06-21T02:22:31.356Z,21.74
2017-06-21T02:23:11.839Z,21.58
2017-06-21T02:23:52.328Z,21.62
2017-06-21T02:24:32.846Z,21.5
2017-06-21T02:25:13.327Z,21.5
2017-06-21T02:25:53.831Z,21.44
2017-06-21T02:26:34.315Z,21.47
2017-06-21T02:27:14.877Z,21.53
2017-06-21T02:27:55.363Z,21.5
2017-06-21T02:28:35.865Z,21.5
2017-06-21T02:29:16.339Z,21.65
2017-06-21T02:29:56.826Z,21.61
2017-06-21T02:30:37.318Z,21.69
2017-06-21T02:31:17.817Z,21.67
2017-06-21T02:31:58.307Z,21.72
2017-06-21T02:32:38.807Z,21.67
2017-06-21T02:33:19.291Z,21.53
2017-06-21T02:33:59.799Z,21.54
2017-06-21T02:34:40.277Z,21.64
2017-06-21T02:35:20.769Z,21.54
2017-06-21T02:36:01.264Z,21.47
2017-06-21T02:36:41.751Z,21.5
2017-06-21T02:37:22.250Z,21.61
2017-06-21T02:38:02.739Z,21.62
2017-06-21T02:38:43.232Z,21.62
2017-06-21T02:39:23.718Z,21.69
2017-06-21T02:40:04.212Z,21.67
2017-06-21T02:40:44.755Z,21.54
2017-06-21T02:41:25.173Z,21.42
2017-06-21T02:42:05.687Z,21.46
2017-06-21T02:42:46.176Z,21.38
2017-06-21T02:43:26.679Z,21.52
2017-06-21T02:44:07.150Z,21.5
2017-06-21T02:44:47.639Z,21.4
2017-06-21T02:45:28.119Z,21.38
2017-06-21T02:46:08.619Z,21.43
2017-06-21T02:46:49.102Z,21.49
2017-06-21T02:49:01.844Z,21.37
2017-06-21T02:49:42.299Z,21.27
2017-06-21T02:50:22.800Z,21.27
2017-06-21T02:51:03.311Z,21.22
2017-06-21T02:51:43.788Z,21.21
2017-06-21T02:52:24.274Z,21.19
2017-06-21T02:53:04.764Z,21.14
2017-06-21T02:53:46.706Z,21.07
2017-06-21T02:54:27.178Z,21.07
2017-06-21T02:55:08.363Z,20.98
2017-06-21T02:55:48.878Z,21.01
2017-06-21T02:56:29.342Z,20.95
2017-06-21T02:57:09.833Z,20.89
2017-06-21T02:57:50.337Z,20.8
2017-06-21T02:58:30.821Z,20.8
2017-06-21T02:59:11.314Z,20.77
2017-06-21T02:59:51.811Z,20.85
2017-06-21T03:00:32.296Z,20.84
2017-06-21T03:01:12.795Z,20.8
2017-06-21T03:01:53.295Z,20.87
2017-06-21T03:02:34.302Z,20.89
2017-06-21T03:03:14.799Z,20.84
2017-06-21T03:03:55.292Z,20.85
2017-06-21T03:04:35.793Z,20.88
2017-06-21T03:05:16.285Z,20.95
2017-06-21T03:05:56.781Z,20.92
2017-06-21T03:06:37.277Z,20.97
2017-06-21T03:07:17.768Z,20.98
2017-06-21T03:07:58.812Z,20.95
2017-06-21T03:08:39.298Z,21.06
2017-06-21T03:09:19.797Z,21.1
2017-06-21T03:10:00.283Z,21.12
2017-06-21T03:10:40.781Z,21.06
2017-06-21T03:11:21.272Z,20.95
2017-06-21T03:12:01.766Z,20.97
2017-06-21T03:12:42.264Z,20.97
2017-06-21T03:13:22.733Z,21.01
2017-06-21T03:14:03.205Z,21.03
2017-06-21T03:14:43.700Z,20.95
2017-06-21T03:15:24.189Z,20.91
2017-06-21T03:16:04.684Z,20.97
2017-06-21T03:16:45.178Z,20.98
2017-06-21T03:17:25.675Z,20.92
2017-06-21T03:18:06.173Z,20.99
2017-06-21T03:18:46.651Z,20.99
2017-06-21T03:19:27.140Z,21.01
2017-06-21T03:20:07.641Z,21.01
2017-06-21T03:20:48.116Z,20.99
2017-06-21T03:21:28.608Z,21.01
2017-06-21T03:22:09.096Z,21.04
2017-06-21T03:22:49.602Z,21.01
2017-06-21T03:23:30.093Z,20.94
2017-06-21T03:24:11.139Z,20.89
2017-06-21T03:24:51.642Z,20.82
2017-06-21T03:25:32.117Z,20.87
2017-06-21T03:26:12.575Z,20.8
2017-06-21T03:26:53.070Z,20.76
2017-06-21T03:27:33.564Z,20.85
2017-06-21T03:28:14.056Z,20.88
2017-06-21T03:28:54.545Z,20.85
2017-06-21T03:29:35.043Z,20.92
2017-06-21T03:30:15.543Z,20.91
2017-06-21T03:30:56.018Z,21.01
2017-06-21T03:31:36.512Z,20.98
2017-06-21T03:32:17.005Z,21.07
2017-06-21T03:32:57.507Z,21.17
2017-06-21T03:33:37.992Z,21.19
2017-06-21T03:34:18.481Z,21.22
2017-06-21T03:34:58.972Z,21.16
2017-06-21T03:35:39.471Z,21.17
2017-06-21T03:36:19.960Z,21.07
2017-06-21T03:37:00.452Z,21.01
2017-06-21T03:37:40.948Z,20.87
2017-06-21T03:38:21.440Z,20.8
2017-06-21T03:39:01.936Z,20.7
2017-06-21T03:39:42.436Z,20.76
2017-06-21T03:40:22.932Z,20.73
2017-06-21T03:41:03.417Z,20.69
2017-06-21T03:41:43.908Z,20.64
2017-06-21T03:42:24.395Z,20.66
2017-06-21T03:43:04.889Z,20.62
2017-06-21T03:43:45.383Z,20.57
2017-06-21T03:44:25.868Z,20.61
2017-06-21T03:45:06.366Z,20.66
2017-06-21T03:45:46.861Z,20.64
2017-06-21T03:46:27.340Z,20.66
2017-06-21T03:47:07.842Z,20.64
2017-06-21T03:47:48.331Z,20.64
2017-06-21T03:48:28.854Z,20.62
2017-06-21T03:49:09.363Z,20.64
2017-06-21T03:49:49.847Z,20.52
2017-06-21T03:50:30.341Z,20.62
2017-06-21T03:51:10.835Z,20.64
2017-06-21T03:51:51.319Z,20.59
2017-06-21T03:52:31.819Z,20.67
2017-06-21T03:53:12.308Z,20.61
2017-06-21T03:53:52.805Z,20.7
2017-06-21T03:54:33.995Z,20.64
2017-06-21T03:55:14.466Z,20.58
2017-06-21T03:55:54.901Z,20.69
2017-06-21T03:56:35.400Z,20.72
2017-06-21T03:58:27.920Z,20.87
2017-06-21T03:59:08.399Z,20.82
2017-06-21T03:59:48.884Z,20.92
2017-06-21T04:00:29.326Z,20.87
2017-06-21T04:01:09.781Z,20.89
2017-06-21T04:01:50.245Z,20.91
2017-06-21T04:02:30.705Z,20.85
2017-06-21T04:03:11.720Z,20.87
2017-06-21T04:03:52.134Z,20.76
2017-06-21T04:04:32.548Z,20.82
2017-06-21T04:05:13.003Z,20.77
2017-06-21T04:05:53.433Z,20.8
2017-06-21T04:06:33.911Z,20.69
2017-06-21T04:07:14.335Z,20.58
2017-06-21T04:09:12.020Z,20.7
2017-06-21T04:09:52.448Z,20.84
2017-06-21T04:10:33.778Z,20.67
2017-06-21T04:11:14.235Z,20.8
2017-06-21T04:11:54.676Z,20.91
2017-06-21T04:12:35.847Z,20.97
2017-06-21T04:13:16.291Z,20.97
2017-06-21T04:13:56.721Z,20.98
2017-06-21T04:14:37.191Z,20.95
2017-06-21T04:15:17.671Z,21.06
2017-06-21T04:15:58.114Z,21.07
2017-06-21T04:16:38.574Z,21.01
2017-06-21T04:17:19.024Z,20.99
2017-06-21T04:17:59.500Z,20.99
2017-06-21T04:18:40.762Z,21.13
2017-06-21T04:20:38.444Z,21.09
2017-06-21T04:21:18.860Z,20.95
2017-06-21T04:21:59.313Z,20.98
2017-06-21T04:22:40.292Z,20.94
2017-06-21T04:23:20.721Z,21.03
2017-06-21T04:24:01.191Z,21.03
2017-06-21T04:24:42.195Z,21.06
2017-06-21T04:25:22.624Z,21.09
2017-06-21T04:26:03.064Z,21.13
2017-06-21T04:26:43.539Z,20.99
2017-06-21T04:27:23.958Z,21.07
2017-06-21T04:28:05.083Z,21.16
2017-06-21T04:28:45.528Z,21.19
2017-06-21T04:29:25.996Z,21.37
2017-06-21T04:30:06.419Z,21.32
2017-06-21T04:30:46.866Z,21.47
2017-06-21T04:31:27.337Z,21.38
2017-06-21T04:32:07.833Z,21.44
2017-06-21T04:32:48.281Z,21.46
2017-06-21T04:33:28.732Z,21.54
2017-06-21T04:34:09.194Z,21.5
2017-06-21T04:34:49.644Z,21.43
2017-06-21T04:35:30.087Z,21.65
2017-06-21T04:36:10.522Z,21.65
2017-06-21T04:36:50.971Z,21.69
2017-06-21T04:37:31.402Z,21.75
2017-06-21T04:38:11.908Z,21.83
2017-06-21T04:38:52.352Z,21.96
2017-06-21T04:39:32.814Z,22
2017-06-21T04:40:13.218Z,22.06
2017-06-21T04:40:53.654Z,21.99
2017-06-21T04:41:34.129Z,21.96
2017-06-21T04:42:14.643Z,22.1
2017-06-21T04:42:55.088Z,22.22
2017-06-21T04:43:35.586Z,22.37
2017-06-21T04:44:16.049Z,22.62
2017-06-21T04:44:56.481Z,22.61
2017-06-21T04:45:36.911Z,22.82
2017-06-21T04:46:17.340Z,22.88
2017-06-21T04:46:57.807Z,23.16
2017-06-21T04:47:38.281Z,23.2
2017-06-21T04:48:18.755Z,23.23
2017-06-21T04:48:59.256Z,23.23
2017-06-21T04:49:39.720Z,23.33
2017-06-21T04:51:37.363Z,23.36
2017-06-21T04:52:17.823Z,23.32
2017-06-21T04:52:58.290Z,23.47
2017-06-21T04:53:38.743Z,23.28
2017-06-21T04:55:51.437Z,23.61
2017-06-21T04:56:31.869Z,23.65
2017-06-21T04:57:12.344Z,23.66
2017-06-21T04:57:52.797Z,23.69
2017-06-21T04:58:33.248Z,23.58
2017-06-21T04:59:13.643Z,23.79
2017-06-21T04:59:54.086Z,23.78
2017-06-21T05:00:34.526Z,23.7
2017-06-21T05:01:14.971Z,23.91
2017-06-21T05:02:52.392Z,23.83
2017-06-21T05:03:32.804Z,23.65
2017-06-21T05:04:13.258Z,23.75
2017-06-21T05:04:53.755Z,23.95
2017-06-21T05:05:34.173Z,23.84
2017-06-21T05:06:14.661Z,23.65
2017-06-21T05:08:02.238Z,23.66
2017-06-21T05:08:42.641Z,23.61
2017-06-21T05:09:23.120Z,23.84
2017-06-21T05:10:03.635Z,24
2017-06-21T05:10:44.173Z,24.06
2017-06-21T05:11:24.605Z,24.1
2017-06-21T05:12:05.099Z,24.09
2017-06-21T05:12:45.589Z,24.13
2017-06-21T05:13:26.079Z,23.84
2017-06-21T05:14:06.589Z,23.88
2017-06-21T05:14:47.076Z,24.16
2017-06-21T05:15:27.552Z,24.09
2017-06-21T05:16:08.033Z,24.08
2017-06-21T05:16:48.552Z,24.05
2017-06-21T05:17:29.033Z,23.93
2017-06-21T05:18:09.537Z,23.93
2017-06-21T05:18:50.019Z,23.97
2017-06-21T05:19:30.496Z,23.83
2017-06-21T05:20:10.973Z,23.79
2017-06-21T05:20:51.471Z,23.84
2017-06-21T05:21:31.956Z,23.85
2017-06-21T05:22:12.481Z,23.79
2017-06-21T05:22:52.968Z,23.75
2017-06-21T05:23:33.463Z,23.84
2017-06-21T05:24:13.941Z,23.97
2017-06-21T05:24:54.424Z,23.9
2017-06-21T05:25:34.886Z,23.97
2017-06-21T05:26:15.379Z,24.1
2017-06-21T05:26:55.868Z,24.22
2017-06-21T05:27:36.365Z,24.21
2017-06-21T05:28:16.846Z,24.27
2017-06-21T05:28:57.353Z,24.25
2017-06-21T05:29:37.851Z,24.25
2017-06-21T05:30:18.328Z,24.35
2017-06-21T05:30:58.817Z,24.43
2017-06-21T05:31:39.313Z,24.39
2017-06-21T05:32:19.798Z,24.32
2017-06-21T05:33:00.296Z,24.16
2017-06-21T05:34:58.084Z,24.47
2017-06-21T05:35:38.402Z,24.68
2017-06-21T05:36:18.858Z,24.61
2017-06-21T05:36:59.392Z,24.68
2017-06-21T05:37:39.877Z,24.52
2017-06-21T05:38:20.259Z,24.45
2017-06-21T05:39:00.709Z,24.53
2017-06-21T05:39:41.170Z,24.52
2017-06-21T05:40:21.616Z,24.52
2017-06-21T05:41:02.096Z,24.77
2017-06-21T05:41:42.526Z,24.6
2017-06-21T05:42:22.957Z,24.76
2017-06-21T05:43:03.386Z,24.77
2017-06-21T05:43:43.838Z,24.91
2017-06-21T05:44:24.300Z,25.03
2017-06-21T05:45:04.747Z,25.17
2017-06-21T05:45:45.215Z,25.23
2017-06-21T05:46:25.646Z,25.23
2017-06-21T05:47:06.101Z,25.18
2017-06-21T05:47:46.524Z,25.24
2017-06-21T05:48:27.023Z,25.42
2017-06-21T05:49:07.472Z,25.21
2017-06-21T05:49:47.893Z,24.98
2017-06-21T05:52:00.808Z,25.57
2017-06-21T05:52:41.063Z,25.58
2017-06-21T05:53:21.636Z,25.6
2017-06-21T05:54:02.000Z,25.43
2017-06-21T05:54:42.496Z,25.38
2017-06-21T05:55:22.981Z,25.7
2017-06-21T05:56:04.308Z,25.57
2017-06-21T05:56:44.810Z,25.72
2017-06-21T05:57:25.250Z,25.8
2017-06-21T05:59:17.799Z,25.55
2017-06-21T05:59:58.282Z,25.3
2017-06-21T06:00:38.790Z,25.33
2017-06-21T06:01:19.297Z,25.67
2017-06-21T06:01:59.789Z,25.94
2017-06-21T06:02:40.286Z,25.91
2017-06-21T06:03:20.779Z,25.54
2017-06-21T06:04:01.268Z,25.3
2017-06-21T06:04:41.767Z,25.61
2017-06-21T06:05:22.281Z,25.58
2017-06-21T06:06:02.779Z,25.64
2017-06-21T06:06:43.280Z,25.92
2017-06-21T06:07:23.762Z,25.98
2017-06-21T06:08:04.262Z,25.83
2017-06-21T06:08:44.761Z,26.1
2017-06-21T06:09:25.251Z,26.21
2017-06-21T06:10:05.828Z,25.85
2017-06-21T06:10:46.329Z,25.92
2017-06-21T06:11:26.833Z,26.09
2017-06-21T06:12:07.321Z,26.26
2017-06-21T06:12:47.881Z,26.37
2017-06-21T06:13:28.375Z,26.32
2017-06-21T06:14:08.896Z,26.25
2017-06-21T06:14:49.415Z,25.91
2017-06-21T06:15:29.912Z,25.73
2017-06-21T06:16:10.403Z,25.97
2017-06-21T06:16:50.906Z,26.01
2017-06-21T06:17:31.417Z,25.98
2017-06-21T06:18:11.894Z,25.94
2017-06-21T06:18:52.394Z,26.43
2017-06-21T06:19:32.894Z,26.69
2017-06-21T06:20:13.397Z,26.99
2017-06-21T06:20:53.888Z,26.67
2017-06-21T06:21:34.374Z,26.52
2017-06-21T06:22:14.877Z,26.4
2017-06-21T06:22:55.383Z,26.69
2017-06-21T06:23:35.882Z,26.73
2017-06-21T06:24:16.380Z,26.65
2017-06-21T06:24:56.876Z,26.57
2017-06-21T06:25:37.376Z,26.51
2017-06-21T06:26:17.902Z,26.33
2017-06-21T06:26:58.387Z,26.55
2017-06-21T06:27:38.903Z,26.52
2017-06-21T06:28:19.386Z,26.67
2017-06-21T06:28:59.892Z,26.6
2017-06-21T06:29:40.421Z,26.65
2017-06-21T06:30:20.962Z,26.55
2017-06-21T06:31:01.461Z,26.39
2017-06-21T06:31:41.968Z,26.35
2017-06-21T06:32:22.481Z,26.43
2017-06-21T06:33:02.977Z,26.55
2017-06-21T06:33:43.498Z,26.69
2017-06-21T06:34:23.999Z,27
2017-06-21T06:35:04.533Z,27.37
2017-06-21T06:35:45.025Z,27.44
2017-06-21T06:36:25.536Z,27.81
2017-06-21T06:37:06.042Z,27.92
2017-06-21T06:37:46.558Z,27.82
2017-06-21T06:38:27.057Z,27.85
2017-06-21T06:39:07.539Z,28.03
2017-06-21T06:39:48.032Z,28.36
2017-06-21T06:40:28.506Z,28.61
2017-06-21T06:41:08.995Z,28.56
2017-06-21T06:41:49.497Z,28.73
2017-06-21T06:42:30.007Z,28.59
2017-06-21T06:43:10.512Z,28.73
2017-06-21T06:43:51.014Z,28.8
2017-06-21T06:44:31.507Z,28.83
2017-06-21T06:45:12.005Z,28.56
2017-06-21T06:45:52.557Z,28.73
2017-06-21T06:46:33.060Z,28.77
2017-06-21T06:47:13.562Z,28.4
2017-06-21T06:47:54.063Z,28.44
2017-06-21T06:48:34.555Z,28.39
2017-06-21T06:49:15.056Z,28.3
2017-06-21T06:49:55.566Z,28.8
2017-06-21T06:50:36.076Z,28.64
2017-06-21T06:51:16.585Z,28.88
2017-06-21T06:51:57.081Z,28.81
2017-06-21T06:52:37.596Z,28.93
2017-06-21T06:53:18.153Z,29.14
2017-06-21T06:53:58.764Z,28.95
2017-06-21T06:54:40.768Z,28.74
2017-06-21T06:55:23.017Z,28.51
2017-06-21T06:56:04.124Z,28.24
2017-06-21T06:56:44.746Z,28.33
2017-06-21T06:57:25.222Z,28.55
2017-06-21T06:58:05.710Z,28.67
2017-06-21T06:58:46.225Z,28.41
2017-06-21T06:59:28.365Z,28.44
2017-06-21T07:00:10.101Z,28.62
2017-06-21T07:00:50.576Z,28.59
2017-06-21T07:01:31.170Z,28.77
2017-06-21T07:02:11.657Z,28.76
2017-06-21T07:02:52.152Z,28.52
2017-06-21T07:03:32.647Z,28.34
2017-06-21T07:04:13.155Z,28.46
2017-06-21T07:04:53.696Z,28.71
2017-06-21T07:05:34.192Z,28.98
2017-06-21T07:06:14.713Z,29.15
2017-06-21T07:06:55.208Z,29.16
2017-06-21T07:07:35.708Z,28.33
2017-06-21T07:08:16.208Z,28.81
2017-06-21T07:08:56.715Z,29.34
2017-06-21T07:09:37.197Z,29.48
2017-06-21T07:10:17.707Z,29.64
2017-06-21T07:10:58.218Z,29.39
2017-06-21T07:11:38.795Z,29.45
2017-06-21T07:12:19.405Z,29.53
2017-06-21T07:12:59.899Z,29.87
2017-06-21T07:13:40.398Z,30.04
2017-06-21T07:14:20.911Z,30.05
2017-06-21T07:15:01.405Z,28.88
2017-06-21T07:15:41.876Z,28.66
2017-06-21T07:16:22.381Z,28.67
2017-06-21T07:17:02.867Z,28.62
2017-06-21T07:17:43.371Z,28.18
2017-06-21T07:19:20.846Z,28.51
2017-06-21T07:20:01.394Z,28.93
2017-06-21T07:20:41.919Z,29.49
2017-06-21T07:21:23.326Z,29.02
2017-06-21T07:22:03.801Z,29.24
2017-06-21T07:22:44.208Z,29.52
2017-06-21T07:23:24.675Z,29.67
2017-06-21T07:24:05.299Z,29.46
2017-06-21T07:24:45.864Z,29.41
2017-06-21T07:25:26.243Z,29.51
2017-06-21T07:27:03.627Z,29.73
2017-06-21T07:27:44.135Z,29.9
2017-06-21T07:28:24.708Z,30.11
2017-06-21T07:29:05.230Z,29.43
2017-06-21T07:29:45.715Z,29.33
2017-06-21T07:30:26.220Z,29.41
2017-06-21T07:31:06.722Z,29.78
2017-06-21T07:31:47.244Z,30.11
2017-06-21T07:32:27.814Z,30.34
2017-06-21T07:33:08.373Z,30.34
2017-06-21T07:33:48.866Z,30.69
2017-06-21T07:34:29.381Z,31.16
2017-06-21T07:35:09.892Z,30.91
2017-06-21T07:35:50.355Z,31.12
2017-06-21T07:36:30.914Z,30.94
2017-06-21T07:37:11.437Z,31.46
2017-06-21T07:37:51.906Z,31.5
2017-06-21T07:38:32.390Z,30.8
2017-06-21T07:39:12.905Z,30.37
2017-06-21T07:41:25.896Z,31.01
2017-06-21T07:42:06.350Z,31.62
2017-06-21T07:42:47.710Z,31.8
2017-06-21T07:43:28.223Z,31.84
2017-06-21T07:44:08.720Z,31.02
2017-06-21T07:44:49.166Z,30.79
2017-06-21T07:45:29.734Z,30.95
2017-06-21T07:46:10.234Z,30.77
2017-06-21T07:46:50.761Z,31.46
2017-06-21T07:47:31.205Z,31.62
2017-06-21T07:48:11.780Z,32.5
2017-06-21T07:48:52.289Z,33.04
2017-06-21T07:49:32.748Z,33.39
2017-06-21T07:50:13.176Z,33.56
2017-06-21T07:50:53.702Z,33.14
2017-06-21T07:51:34.254Z,32.99
2017-06-21T07:52:14.753Z,32.77
2017-06-21T07:52:55.240Z,32.55
2017-06-21T07:53:35.717Z,32.57
2017-06-21T07:54:16.273Z,33.11
2017-06-21T07:54:56.823Z,33.37
2017-06-21T07:55:37.388Z,33.84
2017-06-21T07:56:17.936Z,33.86
2017-06-21T07:56:58.430Z,33.84
2017-06-21T07:57:39.016Z,33.95
2017-06-21T07:58:19.550Z,33.81
2017-06-21T07:59:00.024Z,33.65
2017-06-21T07:59:40.513Z,33.37
2017-06-21T08:00:22.762Z,33.73
2017-06-21T08:01:03.249Z,33.53
2017-06-21T08:01:43.816Z,33.14
2017-06-21T08:02:24.287Z,32.82
2017-06-21T08:03:04.891Z,32.96
2017-06-21T08:03:45.949Z,32.84
2017-06-21T08:04:26.324Z,33.28
2017-06-21T08:05:07.426Z,33.65
2017-06-21T08:05:47.966Z,33.37
2017-06-21T08:06:28.523Z,34
2017-06-21T08:07:09.089Z,33.97
2017-06-21T08:07:49.664Z,33.84
2017-06-21T08:08:30.257Z,33.9
2017-06-21T08:09:10.763Z,34.54
2017-06-21T08:09:51.249Z,35.03
2017-06-21T08:10:31.782Z,35.77
2017-06-21T08:11:13.102Z,36.16
2017-06-21T08:11:53.641Z,36.2
2017-06-21T08:12:35.153Z,35.84
2017-06-21T08:13:15.587Z,35.34
2017-06-21T08:13:56.793Z,35.06
2017-06-21T08:14:38.314Z,34.89
2017-06-21T08:15:18.766Z,34.75
2017-06-21T08:15:59.248Z,34.88
2017-06-21T08:16:39.742Z,34.15
2017-06-21T08:17:21.217Z,34.5
2017-06-21T08:18:02.245Z,35.15
2017-06-21T08:18:42.711Z,34.02
2017-06-21T08:19:23.204Z,33.94
2017-06-21T08:20:03.729Z,33.23
2017-06-21T08:20:46.125Z,33.42
2017-06-21T08:21:28.248Z,33.23
2017-06-21T08:22:08.711Z,33.21
2017-06-21T08:22:49.259Z,33.37
2017-06-21T08:23:29.713Z,33.95
2017-06-21T08:24:10.336Z,34.52
2017-06-21T08:24:50.848Z,34.64
2017-06-21T08:25:32.185Z,34.85
2017-06-21T08:26:12.678Z,34.5
2017-06-21T08:26:53.721Z,35.03
2017-06-21T08:27:34.177Z,35.04
2017-06-21T08:28:14.705Z,34.82
2017-06-21T08:28:55.222Z,34.99
2017-06-21T08:29:35.824Z,35.19
2017-06-21T08:30:16.456Z,35.15
2017-06-21T08:30:56.923Z,35.62
2017-06-21T08:31:37.444Z,36.22
2017-06-21T08:32:17.983Z,36.78
2017-06-21T08:32:58.513Z,37.13
2017-06-21T08:33:39.067Z,36.46
2017-06-21T08:34:19.537Z,35.66
2017-06-21T08:35:00.051Z,35.45
2017-06-21T08:35:40.551Z,36.31
2017-06-21T08:36:20.994Z,37.03
2017-06-21T08:37:01.824Z,37.39
2017-06-21T08:37:42.450Z,37.88
2017-06-21T08:38:22.894Z,38.5
2017-06-21T08:39:03.432Z,38.95
2017-06-21T08:41:16.311Z,39.38
2017-06-21T08:41:56.796Z,39.81
2017-06-21T08:42:37.270Z,39.57
2017-06-21T08:43:17.844Z,40.16
2017-06-21T08:43:58.461Z,38.87
2017-06-21T08:44:39.019Z,38.01
2017-06-21T08:45:19.522Z,37.97
2017-06-21T08:46:00.041Z,38.22
2017-06-21T08:46:40.661Z,37.81
2017-06-21T08:47:21.152Z,36.39
2017-06-21T08:48:01.831Z,36.43
2017-06-21T08:48:42.245Z,37.46
2017-06-21T08:49:22.723Z,37.59
2017-06-21T08:50:03.196Z,36.84
2017-06-21T08:50:43.655Z,35.89
2017-06-21T08:51:24.248Z,36
2017-06-21T08:52:04.850Z,36.95
2017-06-21T08:52:45.453Z,37.79
2017-06-21T08:54:43.181Z,39.63
2017-06-21T08:55:23.707Z,40.12
2017-06-21T08:56:04.234Z,40.25
2017-06-21T08:56:44.741Z,40.55
2017-06-21T08:57:25.320Z,40.38
2017-06-21T08:58:05.903Z,39.47
2017-06-21T08:58:46.448Z,39.28
2017-06-21T08:59:26.974Z,38.42
2017-06-21T09:00:07.517Z,37.49
2017-06-21T09:00:48.084Z,37.75
2017-06-21T09:01:28.647Z,37.22
2017-06-21T09:02:09.298Z,37.1
2017-06-21T09:02:49.892Z,37.97
2017-06-21T09:03:30.464Z,37.6
2017-06-21T09:04:11.054Z,35.38
2017-06-21T09:04:51.665Z,36.34
2017-06-21T09:05:32.231Z,37.02
2017-06-21T09:06:12.803Z,37.06
2017-06-21T09:06:53.413Z,36.91